createdAt,value
2022-11-03T00:01:40.434Z,80.71
2022-11-03T00:04:08.854Z,80.37
2022-11-03T00:06:35.541Z,80.52
2022-11-03T00:09:05.450Z,80.15
2022-11-03T00:11:34.262Z,80.28
2022-11-03T00:14:01.346Z,80.21
2022-11-03T00:16:28.014Z,80.56
2022-11-03T00:18:54.914Z,81.47
2022-11-03T00:21:21.564Z,81.08
2022-11-03T00:23:48.726Z,80.20
2022-11-03T00:26:26.328Z,80.39
2022-11-03T00:28:55.888Z,81.62
2022-11-03T00:31:26.147Z,81.65
2022-11-03T00:33:53.487Z,81.05
2022-11-03T00:36:22.356Z,80.60
2022-11-03T00:38:49.339Z,80.32
2022-11-03T00:41:17.324Z,80.19
2022-11-03T00:43:43.898Z,80.56
2022-11-03T00:46:10.800Z,80.56
2022-11-03T00:48:38.226Z,81.51
2022-11-03T00:51:11.989Z,80.67
2022-11-03T00:53:42.298Z,80.44
2022-11-03T00:56:19.710Z,80.84
2022-11-03T00:58:46.746Z,80.17
2022-11-03T01:01:16.862Z,80.64
2022-11-03T01:04:05.974Z,80.43
2022-11-03T01:06:50.578Z,80.46
2022-11-03T01:09:19.824Z,80.90
2022-11-03T01:12:08.261Z,80.36
2022-11-03T01:14:46.752Z,80.87
2022-11-03T01:17:15.430Z,80.26
2022-11-03T01:19:42.104Z,80.33
2022-11-03T01:22:10.867Z,80.29
2022-11-03T01:24:38.425Z,80.36
2022-11-03T01:27:04.977Z,80.49
2022-11-03T01:29:31.559Z,80.46
2022-11-03T01:31:58.759Z,80.24
2022-11-03T01:34:25.346Z,80.49
2022-11-03T01:36:52.015Z,81.61
2022-11-03T01:39:19.829Z,81.38
2022-11-03T01:41:49.092Z,81.59
2022-11-03T01:44:15.747Z,82.04
2022-11-03T01:46:44.330Z,82.44
2022-11-03T01:49:31.585Z,81.30
2022-11-03T01:52:16.504Z,81.82
2022-11-03T01:54:45.999Z,81.74
2022-11-03T01:57:18.064Z,82.68
2022-11-03T01:59:46.550Z,82.39
2022-11-03T02:02:18.882Z,82.11
2022-11-03T02:04:45.760Z,82.58
2022-11-03T02:07:25.039Z,82.21
2022-11-03T02:09:51.654Z,82.56
2022-11-03T02:12:21.223Z,82.70
2022-11-03T02:14:55.807Z,83.02
2022-11-03T02:17:24.084Z,82.65
2022-11-03T02:19:57.780Z,82.78
2022-11-03T02:22:35.979Z,82.98
2022-11-03T02:25:08.185Z,83.03
2022-11-03T02:27:34.958Z,82.66
2022-11-03T02:30:01.677Z,82.71
2022-11-03T02:32:54.367Z,83.33
2022-11-03T02:35:40.930Z,83.44
2022-11-03T02:38:13.183Z,83.23
2022-11-03T02:40:46.165Z,83.48
2022-11-03T02:43:16.192Z,84.46
2022-11-03T02:45:45.123Z,83.59
2022-11-03T02:48:12.130Z,83.25
2022-11-03T02:50:38.776Z,83.32
2022-11-03T02:53:05.736Z,84.10
2022-11-03T02:55:33.136Z,84.48
2022-11-03T02:58:23.239Z,84.76
2022-11-03T03:00:59.236Z,84.49
2022-11-03T03:03:32.417Z,84.00
2022-11-03T03:06:30.473Z,84.48
2022-11-03T03:09:02.859Z,84.88
2022-11-03T03:11:39.279Z,84.66
2022-11-03T03:14:29.726Z,84.66
2022-11-03T03:16:56.269Z,85.64
2022-11-03T03:19:28.502Z,85.26
2022-11-03T03:21:57.972Z,85.40
2022-11-03T03:24:30.503Z,85.39
2022-11-03T03:27:01.739Z,85.52
2022-11-03T03:29:39.613Z,86.19
2022-11-03T03:32:09.869Z,86.78
2022-11-03T03:34:41.813Z,86.12
2022-11-03T03:37:11.836Z,86.37
2022-11-03T03:39:43.554Z,85.92
2022-11-03T03:42:11.720Z,86.19
2022-11-03T03:44:41.377Z,86.42
2022-11-03T03:47:13.567Z,86.85
2022-11-03T03:49:40.675Z,86.27
2022-11-03T03:52:09.386Z,86.61
2022-11-03T03:54:36.821Z,87.02
2022-11-03T03:57:05.708Z,87.46
2022-11-03T03:59:32.642Z,86.49
2022-11-03T04:01:59.486Z,87.00
2022-11-03T04:04:26.252Z,87.19
2022-11-03T04:07:12.868Z,87.23
2022-11-03T04:09:39.851Z,86.60
2022-11-03T04:12:27.110Z,88.07
2022-11-03T04:15:13.085Z,87.90
2022-11-03T04:18:04.788Z,89.15
2022-11-03T04:20:51.741Z,88.96
2022-11-03T04:23:19.033Z,89.27
2022-11-03T04:25:52.128Z,89.28
2022-11-03T04:28:19.053Z,89.72
2022-11-03T04:30:45.634Z,89.33
2022-11-03T04:33:18.385Z,89.20
2022-11-03T04:35:46.264Z,90.84
2022-11-03T04:38:16.117Z,90.35
2022-11-03T04:40:53.626Z,89.67
2022-11-03T04:43:23.919Z,89.68
2022-11-03T04:45:50.792Z,90.02
2022-11-03T04:48:24.669Z,89.88
2022-11-03T04:50:57.847Z,89.78
2022-11-03T04:53:27.993Z,89.22
2022-11-03T04:55:54.964Z,89.51
2022-11-03T04:58:34.512Z,89.18
2022-11-03T05:01:02.821Z,89.94
2022-11-03T05:03:34.877Z,89.81
2022-11-03T05:06:18.226Z,90.19
2022-11-03T05:08:50.797Z,90.34
2022-11-03T05:11:29.237Z,91.74
2022-11-03T05:14:00.458Z,91.00
2022-11-03T05:16:28.310Z,90.89
2022-11-03T05:18:55.272Z,90.15
2022-11-03T05:21:25.191Z,90.16
2022-11-03T05:23:56.186Z,90.16
2022-11-03T05:26:26.473Z,91.17
2022-11-03T05:28:59.782Z,90.77
2022-11-03T05:31:28.694Z,90.90
2022-11-03T05:34:01.704Z,90.71
2022-11-03T05:36:31.016Z,90.77
2022-11-03T05:39:22.709Z,90.64
2022-11-03T05:41:49.272Z,90.27
2022-11-03T05:44:36.889Z,90.18
2022-11-03T05:47:13.305Z,90.46
2022-11-03T05:49:40.572Z,90.54
2022-11-03T05:52:17.240Z,89.57
2022-11-03T05:54:44.027Z,90.42
2022-11-03T05:57:13.952Z,89.68
2022-11-03T05:59:40.894Z,90.49
2022-11-03T06:02:40.272Z,90.50
2022-11-03T06:05:20.851Z,90.18
2022-11-03T06:07:49.123Z,89.70
2022-11-03T06:10:22.848Z,90.65
2022-11-03T06:12:49.745Z,90.76
2022-11-03T06:15:29.318Z,90.31
2022-11-03T06:17:56.322Z,90.85
2022-11-03T06:20:23.224Z,91.34
2022-11-03T06:22:52.612Z,90.69
2022-11-03T06:25:23.809Z,91.05
2022-11-03T06:27:51.055Z,90.10
2022-11-03T06:30:30.248Z,90.20
2022-11-03T06:33:00.315Z,90.32
2022-11-03T06:35:27.259Z,90.08
2022-11-03T06:37:56.277Z,91.23
2022-11-03T06:40:24.655Z,91.59
2022-11-03T06:42:54.160Z,91.21
2022-11-03T06:45:23.844Z,90.40
2022-11-03T06:47:51.045Z,90.34
2022-11-03T06:50:32.763Z,90.10
2022-11-03T06:53:06.476Z,89.78
2022-11-03T06:55:35.723Z,90.38
2022-11-03T06:58:15.849Z,90.83
2022-11-03T07:00:48.927Z,90.88
2022-11-03T07:03:33.553Z,90.52
2022-11-03T07:06:15.606Z,90.23
2022-11-03T07:08:47.775Z,89.58
2022-11-03T07:11:14.293Z,89.85
2022-11-03T07:13:42.070Z,89.18
2022-11-03T07:16:25.868Z,88.74
2022-11-03T07:18:52.996Z,88.61
2022-11-03T07:21:34.633Z,89.36
2022-11-03T07:24:13.322Z,89.41
2022-11-03T07:26:40.057Z,89.07
2022-11-03T07:29:12.760Z,90.23
2022-11-03T07:31:39.455Z,89.58
2022-11-03T07:34:14.215Z,89.39
2022-11-03T07:36:41.496Z,89.66
2022-11-03T07:39:15.952Z,89.25
2022-11-03T07:41:42.894Z,88.95
2022-11-03T07:44:15.909Z,88.44
2022-11-03T07:46:43.919Z,88.44
2022-11-03T07:49:26.772Z,88.31
2022-11-03T07:51:55.145Z,87.88
2022-11-03T07:54:26.956Z,87.61
2022-11-03T07:56:59.821Z,87.40
2022-11-03T07:59:33.086Z,86.53
2022-11-03T08:02:00.567Z,86.55
2022-11-03T08:04:33.715Z,86.09
2022-11-03T08:07:00.524Z,85.57
2022-11-03T08:09:27.367Z,86.13
2022-11-03T08:11:54.299Z,85.71
2022-11-03T08:14:20.949Z,85.40
2022-11-03T08:16:47.892Z,84.55
2022-11-03T08:19:14.617Z,84.58
2022-11-03T08:21:41.212Z,83.27
2022-11-03T08:24:07.877Z,83.12
2022-11-03T08:26:34.624Z,83.21
2022-11-03T08:29:01.282Z,83.04
2022-11-03T08:31:27.888Z,83.78
2022-11-03T08:33:54.714Z,84.38
2022-11-03T08:36:22.048Z,83.63
2022-11-03T08:38:48.797Z,83.67
2022-11-03T08:41:15.393Z,83.42
2022-11-03T08:43:41.998Z,81.92
2022-11-03T08:46:18.035Z,82.42
2022-11-03T08:48:46.154Z,82.00
2022-11-03T08:51:14.576Z,81.81
2022-11-03T08:53:45.135Z,82.04
2022-11-03T08:56:15.104Z,82.69
2022-11-03T08:58:47.034Z,81.39
2022-11-03T09:01:14.958Z,82.89
2022-11-03T09:03:42.253Z,83.10
2022-11-03T09:06:09.252Z,82.88
2022-11-03T09:11:22.968Z,82.01
2022-11-03T09:13:49.601Z,81.64
2022-11-03T09:16:17.236Z,80.63
2022-11-03T09:18:44.016Z,80.05
2022-11-03T09:21:10.588Z,80.87
2022-11-03T09:23:37.557Z,81.83
2022-11-03T09:26:06.686Z,81.70
2022-11-03T09:28:33.277Z,81.29
2022-11-03T09:31:01.201Z,80.81
2022-11-03T09:33:27.775Z,81.05
2022-11-03T09:35:54.352Z,80.32
2022-11-03T09:38:20.934Z,79.62
2022-11-03T09:43:19.577Z,79.42
2022-11-03T09:45:46.367Z,79.34
2022-11-03T09:48:13.939Z,79.29
2022-11-03T09:50:41.173Z,79.43
2022-11-03T09:53:12.141Z,79.09
2022-11-03T09:55:39.597Z,78.95
2022-11-03T09:58:14.965Z,78.40
2022-11-03T10:00:41.720Z,78.73
2022-11-03T10:03:20.898Z,78.39
2022-11-03T10:05:50.167Z,77.25
2022-11-03T10:08:27.669Z,77.60
2022-11-03T10:10:55.117Z,77.06
2022-11-03T10:13:41.497Z,76.49
2022-11-03T10:16:10.809Z,76.72
2022-11-03T10:18:38.033Z,77.34
2022-11-03T10:21:16.433Z,76.04
2022-11-03T10:23:43.040Z,76.88
2022-11-03T10:26:17.674Z,77.00
2022-11-03T10:29:08.857Z,76.28
2022-11-03T10:31:40.736Z,76.13
2022-11-03T10:34:43.216Z,74.90
2022-11-03T10:37:24.255Z,75.46
2022-11-03T10:39:55.990Z,75.03
2022-11-03T10:42:28.142Z,74.62
2022-11-03T10:45:19.773Z,72.87
2022-11-03T10:48:01.256Z,73.08
2022-11-03T10:50:28.337Z,73.03
2022-11-03T10:52:55.290Z,74.24
2022-11-03T10:55:25.244Z,72.74
2022-11-03T10:57:56.434Z,72.94
2022-11-03T11:00:24.276Z,71.50
2022-11-03T11:02:58.927Z,71.52
2022-11-03T11:05:25.740Z,72.18
2022-11-03T11:07:54.254Z,71.50
2022-11-03T11:10:29.214Z,72.91
2022-11-03T11:13:15.533Z,72.58
2022-11-03T11:15:47.548Z,72.60
2022-11-03T11:18:29.634Z,72.41
2022-11-03T11:21:17.685Z,70.56
2022-11-03T11:23:46.282Z,69.49
2022-11-03T11:26:25.921Z,69.00
2022-11-03T11:29:17.621Z,67.71
2022-11-03T11:31:47.665Z,68.56
2022-11-03T11:34:18.183Z,69.18
2022-11-03T11:36:50.280Z,68.96
2022-11-03T11:39:22.945Z,69.33
2022-11-03T11:42:09.151Z,69.50
2022-11-03T11:44:52.861Z,70.03
2022-11-03T11:47:31.615Z,70.08
2022-11-03T11:50:07.506Z,69.96
2022-11-03T11:52:52.394Z,69.94
2022-11-03T11:55:25.006Z,69.76
2022-11-03T11:57:52.910Z,70.31
2022-11-03T12:00:22.625Z,70.12
2022-11-03T12:02:50.195Z,71.57
2022-11-03T12:05:27.701Z,70.90
2022-11-03T12:07:55.437Z,71.13
2022-11-03T12:10:26.556Z,71.30
2022-11-03T12:12:54.977Z,70.14
2022-11-03T12:15:54.187Z,71.49
2022-11-03T12:18:38.848Z,70.53
2022-11-03T12:21:09.687Z,70.60
2022-11-03T12:23:37.364Z,70.89
2022-11-03T12:26:05.351Z,70.32
2022-11-03T12:28:36.212Z,71.48
2022-11-03T12:31:03.207Z,70.65
2022-11-03T12:33:30.216Z,70.81
2022-11-03T12:35:57.321Z,70.57
2022-11-03T12:38:25.009Z,71.73
2022-11-03T12:40:53.140Z,70.70
2022-11-03T12:43:19.976Z,71.23
2022-11-03T12:45:46.683Z,70.57
2022-11-03T12:48:13.265Z,70.58
2022-11-03T12:50:40.663Z,70.81
2022-11-03T12:53:07.966Z,70.69
2022-11-03T12:55:36.430Z,71.51
2022-11-03T12:58:04.863Z,71.06
2022-11-03T13:00:31.854Z,68.24
2022-11-03T13:02:58.452Z,67.21
2022-11-03T13:05:25.939Z,67.44
2022-11-03T13:07:52.961Z,67.33
2022-11-03T13:10:19.626Z,68.60
2022-11-03T13:12:46.765Z,68.59
2022-11-03T13:15:13.656Z,69.02
2022-11-03T13:18:06.978Z,69.78
2022-11-03T13:20:27.411Z,69.90
2022-11-03T13:22:54.085Z,69.57
2022-11-03T13:25:20.856Z,69.33
2022-11-03T13:27:48.936Z,68.56
2022-11-03T13:30:15.525Z,69.28
2022-11-03T13:32:42.182Z,69.77
2022-11-03T13:35:13.668Z,70.91
2022-11-03T13:37:40.721Z,71.70
2022-11-03T13:40:08.228Z,71.08
2022-11-03T13:42:34.801Z,70.61
2022-11-03T13:45:01.487Z,70.05
2022-11-03T13:47:44.382Z,71.02
2022-11-03T13:50:15.338Z,69.59
2022-11-03T13:52:42.246Z,69.69
2022-11-03T14:00:44.209Z,71.68
2022-11-03T14:05:57.336Z,71.75
2022-11-03T14:08:23.871Z,71.07
2022-11-03T14:10:50.472Z,71.45
2022-11-03T14:13:17.038Z,70.96
2022-11-03T14:15:43.668Z,71.35
2022-11-03T14:18:10.216Z,72.48
2022-11-03T14:20:37.464Z,71.54
2022-11-03T14:23:04.371Z,72.96
2022-11-03T14:25:31.230Z,73.51
2022-11-03T14:27:57.917Z,72.96
2022-11-03T14:30:24.637Z,73.42
2022-11-03T14:32:55.393Z,72.78
2022-11-03T14:35:24.902Z,72.89
2022-11-03T14:37:51.809Z,73.48
2022-11-03T14:40:37.332Z,73.76
2022-11-03T14:43:04.106Z,73.70
2022-11-03T14:45:30.756Z,73.65
2022-11-03T14:47:57.428Z,73.55
2022-11-03T14:50:23.971Z,73.57
2022-11-03T14:52:50.537Z,73.78
2022-11-03T14:55:17.228Z,74.27
2022-11-03T14:57:43.790Z,74.22
2022-11-03T15:00:11.310Z,74.59
2022-11-03T15:02:38.527Z,73.38
2022-11-03T15:05:05.379Z,73.56
2022-11-03T15:07:32.478Z,73.99
2022-11-03T15:09:59.105Z,73.56
2022-11-03T15:12:26.560Z,74.75
2022-11-03T15:14:53.195Z,74.47
2022-11-03T15:17:19.769Z,74.67
2022-11-03T15:19:46.335Z,74.86
2022-11-03T15:22:12.828Z,74.75
2022-11-03T15:27:26.217Z,75.08
2022-11-03T15:29:52.933Z,75.35
2022-11-03T15:32:19.632Z,74.81
2022-11-03T15:34:46.274Z,74.88
2022-11-03T15:37:12.794Z,75.13
2022-11-03T15:39:39.433Z,75.66
2022-11-03T15:42:06.073Z,75.20
2022-11-03T15:44:32.644Z,74.58
2022-11-03T15:46:59.248Z,74.44
2022-11-03T15:49:26.019Z,74.68
2022-11-03T15:51:52.604Z,74.88
2022-11-03T15:54:19.190Z,73.70
2022-11-03T15:56:45.817Z,73.91
2022-11-03T15:59:12.379Z,73.73
2022-11-03T16:01:39.076Z,73.84
2022-11-03T16:04:05.799Z,73.19
2022-11-03T16:07:01.827Z,73.36
2022-11-03T16:09:19.377Z,73.11
2022-11-03T16:11:45.941Z,73.73
2022-11-03T16:14:13.274Z,74.42
2022-11-03T16:16:39.906Z,73.66
2022-11-03T16:19:06.451Z,73.40
2022-11-03T16:21:33.022Z,73.82
2022-11-03T16:23:59.558Z,73.27
2022-11-03T16:26:26.119Z,73.38
2022-11-03T16:28:52.720Z,72.96
2022-11-03T16:31:19.337Z,72.56
2022-11-03T16:33:45.944Z,73.50
2022-11-03T16:36:12.499Z,73.85
2022-11-03T16:38:39.038Z,76.35
2022-11-03T16:41:05.653Z,77.49
2022-11-03T16:43:32.296Z,77.99
2022-11-03T16:45:58.964Z,78.79
2022-11-03T16:48:25.944Z,78.29
2022-11-03T16:50:55.880Z,80.13
2022-11-03T16:53:24.576Z,78.74
2022-11-03T16:55:51.165Z,78.75
2022-11-03T16:58:17.738Z,78.54
2022-11-03T17:00:45.014Z,78.75
2022-11-03T17:03:11.811Z,79.93
2022-11-03T17:05:38.371Z,79.51
2022-11-03T17:08:05.366Z,79.59
2022-11-03T17:10:31.976Z,80.04
2022-11-03T17:12:58.978Z,81.16
2022-11-03T17:15:25.541Z,81.11
2022-11-03T17:17:52.103Z,82.84
2022-11-03T17:20:18.800Z,82.96
2022-11-03T17:22:45.492Z,84.38
2022-11-03T17:25:12.246Z,84.55
2022-11-03T17:27:46.043Z,84.18
2022-11-03T17:30:18.336Z,83.39
2022-11-03T17:32:45.027Z,84.73
2022-11-03T17:35:20.794Z,85.64
2022-11-03T17:37:51.062Z,84.67
2022-11-03T17:40:25.091Z,85.67
2022-11-03T17:42:52.678Z,86.29
2022-11-03T17:45:21.543Z,84.99
2022-11-03T17:47:49.706Z,85.15
2022-11-03T17:50:19.025Z,85.47
2022-11-03T17:52:47.363Z,85.74
2022-11-03T17:55:31.694Z,85.60
2022-11-03T17:58:01.551Z,87.67
2022-11-03T18:00:28.780Z,87.49
2022-11-03T18:02:56.296Z,88.58
2022-11-03T18:05:29.949Z,88.75
2022-11-03T18:07:58.150Z,90.24
2022-11-03T18:10:38.579Z,91.09
2022-11-03T18:13:16.218Z,91.53
2022-11-03T18:15:49.638Z,91.07
2022-11-03T18:18:32.472Z,91.89
2022-11-03T18:20:59.295Z,92.26
2022-11-03T18:23:31.557Z,92.22
2022-11-03T18:26:00.548Z,93.07
2022-11-03T18:28:27.638Z,94.92
2022-11-03T18:30:56.372Z,95.66
2022-11-03T18:33:35.720Z,94.75
2022-11-03T18:36:06.158Z,95.53
2022-11-03T18:38:36.394Z,96.48
2022-11-03T18:41:22.960Z,96.20
2022-11-03T18:43:49.585Z,96.97
2022-11-03T18:46:16.202Z,96.94
2022-11-03T18:48:42.738Z,98.16
2022-11-03T18:51:09.925Z,99.05
2022-11-03T18:53:36.534Z,98.55
2022-11-03T18:56:03.167Z,98.94
2022-11-03T18:58:29.951Z,99.10
2022-11-03T19:00:56.574Z,98.46
2022-11-03T19:03:24.085Z,98.15
2022-11-03T19:05:52.740Z,98.58
2022-11-03T19:08:22.605Z,98.05
2022-11-03T19:10:50.435Z,98.99
2022-11-03T19:13:25.091Z,98.47
2022-11-03T19:15:51.641Z,100.00
2022-11-03T19:18:18.374Z,100.00
2022-11-03T19:20:44.903Z,99.18
2022-11-03T19:23:12.485Z,100.00
2022-11-03T19:25:43.348Z,100.00
2022-11-03T19:28:15.674Z,100.00
2022-11-03T19:30:43.702Z,100.00
2022-11-03T19:33:19.764Z,100.00
2022-11-03T19:35:47.220Z,100.00
2022-11-03T19:38:16.040Z,100.00
2022-11-03T19:41:03.416Z,100.00
2022-11-03T19:43:34.530Z,100.00
2022-11-03T19:46:02.369Z,100.00
2022-11-03T19:48:33.240Z,100.00
2022-11-03T19:50:59.884Z,100.00
2022-11-03T19:53:28.915Z,100.00
2022-11-03T19:55:56.376Z,100.00
2022-11-03T19:58:25.488Z,100.00
2022-11-03T20:00:53.568Z,100.00
2022-11-03T20:03:22.015Z,100.00
2022-11-03T20:05:51.857Z,100.00
2022-11-03T20:08:22.102Z,100.00
2022-11-03T20:10:49.259Z,100.00
2022-11-03T20:13:19.175Z,100.00
2022-11-03T20:15:45.752Z,100.00
2022-11-03T20:18:13.881Z,100.00
2022-11-03T20:20:42.279Z,100.00
2022-11-03T20:23:20.118Z,100.00
2022-11-03T20:25:47.805Z,100.00
2022-11-03T20:28:22.183Z,100.00
2022-11-03T20:30:49.334Z,100.00
2022-11-03T20:33:18.006Z,100.00
2022-11-03T20:35:45.695Z,100.00
2022-11-03T20:38:14.730Z,100.00
2022-11-03T20:40:42.013Z,100.00
2022-11-03T20:43:20.851Z,100.00
2022-11-03T20:45:47.397Z,100.00
2022-11-03T20:48:13.984Z,100.00
2022-11-03T20:50:40.950Z,100.00
2022-11-03T20:53:22.821Z,100.00
2022-11-03T20:55:49.411Z,100.00
2022-11-03T20:58:18.341Z,100.00
2022-11-03T21:00:47.465Z,100.00
2022-11-03T21:03:57.684Z,100.00
2022-11-03T21:06:16.840Z,100.00
2022-11-03T21:08:45.132Z,100.00
2022-11-03T21:11:24.172Z,100.00
2022-11-03T21:13:51.936Z,100.00
2022-11-03T21:16:37.552Z,100.00
2022-11-03T21:19:40.690Z,100.00
2022-11-03T21:22:52.415Z,100.00
2022-11-03T21:25:22.245Z,100.00
2022-11-03T21:27:51.771Z,100.00
2022-11-03T21:30:19.247Z,100.00
2022-11-03T21:32:48.221Z,100.00
2022-11-03T21:35:18.043Z,100.00
2022-11-03T21:37:45.161Z,100.00
2022-11-03T21:40:11.944Z,100.00
2022-11-03T21:42:57.404Z,100.00
2022-11-03T21:45:24.111Z,100.00
2022-11-03T21:48:13.490Z,100.00
2022-11-03T21:50:41.450Z,100.00
2022-11-03T21:53:08.441Z,100.00
2022-11-03T21:55:35.761Z,100.00
2022-11-03T21:58:03.001Z,100.00
2022-11-03T22:00:29.842Z,100.00
2022-11-03T22:02:56.604Z,100.00
2022-11-03T22:05:23.323Z,100.00
2022-11-03T22:07:49.994Z,100.00
2022-11-03T22:10:17.859Z,100.00
2022-11-03T22:12:44.571Z,100.00
2022-11-03T22:15:29.872Z,100.00
2022-11-03T22:18:04.217Z,100.00
2022-11-03T22:20:49.434Z,100.00
2022-11-03T22:23:34.794Z,100.00
2022-11-03T22:26:20.456Z,100.00
2022-11-03T22:29:07.106Z,100.00
2022-11-03T22:31:43.088Z,100.00
2022-11-03T22:34:28.704Z,100.00
2022-11-03T22:36:55.468Z,100.00
2022-11-03T22:39:40.603Z,100.00
2022-11-03T22:42:25.907Z,100.00
2022-11-03T22:45:11.108Z,100.00
2022-11-03T22:47:37.637Z,100.00
2022-11-03T22:50:04.717Z,100.00
2022-11-03T22:52:31.261Z,100.00
2022-11-03T22:54:57.860Z,100.00
2022-11-03T22:57:24.447Z,100.00
2022-11-03T22:59:51.219Z,100.00
2022-11-03T23:02:17.803Z,100.00
2022-11-03T23:04:46.766Z,100.00
2022-11-03T23:07:13.328Z,100.00
2022-11-03T23:09:39.907Z,100.00
2022-11-03T23:12:06.731Z,100.00
2022-11-03T23:14:51.924Z,100.00
2022-11-03T23:17:18.688Z,100.00
2022-11-03T23:20:03.900Z,100.00
2022-11-03T23:22:30.462Z,100.00
2022-11-03T23:25:00.001Z,100.00
2022-11-03T23:27:26.593Z,100.00
2022-11-03T23:29:53.134Z,100.00
2022-11-03T23:32:19.706Z,100.00
2022-11-03T23:34:46.301Z,100.00
2022-11-03T23:37:12.910Z,100.00
2022-11-03T23:39:39.642Z,100.00
2022-11-03T23:42:06.497Z,100.00
2022-11-03T23:44:53.028Z,100.00
2022-11-03T23:47:38.397Z,100.00
2022-11-03T23:50:05.357Z,100.00
2022-11-03T23:52:31.976Z,100.00
2022-11-03T23:54:58.510Z,100.00
2022-11-03T23:57:43.598Z,100.00
